sensor_id;sensor_type;location;lat;lon;timestamp;P1;durP1;ratioP1;P2;durP2;ratioP2
691;SDS011;70475;50.084;8.576;2023-11-21T00:00:07;1.50;;;1.20;;
691;SDS011;70475;50.084;8.576;2023-11-21T00:02:39;2.60;;;1.60;;
691;SDS011;70475;50.084;8.576;2023-11-21T00:05:07;1.33;;;1.23;;
691;SDS011;70475;50.084;8.576;2023-11-21T00:07:37;2.30;;;1.87;;
691;SDS011;70475;50.084;8.576;2023-11-21T00:10:05;2.03;;;1.03;;
691;SDS011;70475;50.084;8.576;2023-11-21T00:12:34;4.20;;;2.40;;
691;SDS011;70475;50.084;8.576;2023-11-21T00:15:02;1.23;;;1.07;;
691;SDS011;70475;50.084;8.576;2023-11-21T00:17:31;3.67;;;1.40;;
691;SDS011;70475;50.084;8.576;2023-11-21T00:19:59;2.80;;;1.10;;
691;SDS011;70475;50.084;8.576;2023-11-21T00:22:26;2.87;;;1.60;;
691;SDS011;70475;50.084;8.576;2023-11-21T00:24:55;2.10;;;1.20;;
691;SDS011;70475;50.084;8.576;2023-11-21T00:27:23;5.90;;;1.80;;
691;SDS011;70475;50.084;8.576;2023-11-21T00:29:51;2.70;;;1.50;;
691;SDS011;70475;50.084;8.576;2023-11-21T00:32:19;1.27;;;1.07;;
691;SDS011;70475;50.084;8.576;2023-11-21T00:34:47;1.43;;;1.10;;
691;SDS011;70475;50.084;8.576;2023-11-21T00:37:15;1.90;;;1.47;;
691;SDS011;70475;50.084;8.576;2023-11-21T00:39:42;2.40;;;1.67;;
691;SDS011;70475;50.084;8.576;2023-11-21T00:42:11;1.57;;;1.10;;
691;SDS011;70475;50.084;8.576;2023-11-21T00:44:39;3.63;;;1.67;;
691;SDS011;70475;50.084;8.576;2023-11-21T00:47:07;2.37;;;1.67;;
691;SDS011;70475;50.084;8.576;2023-11-21T00:49:35;2.33;;;1.70;;
691;SDS011;70475;50.084;8.576;2023-11-21T00:52:03;2.67;;;1.60;;
691;SDS011;70475;50.084;8.576;2023-11-21T00:54:31;1.87;;;1.30;;
691;SDS011;70475;50.084;8.576;2023-11-21T00:57:00;1.40;;;0.97;;
691;SDS011;70475;50.084;8.576;2023-11-21T00:59:29;1.90;;;1.70;;
691;SDS011;70475;50.084;8.576;2023-11-21T01:01:57;3.67;;;1.77;;
691;SDS011;70475;50.084;8.576;2023-11-21T01:04:26;2.80;;;1.27;;
691;SDS011;70475;50.084;8.576;2023-11-21T01:06:54;5.70;;;1.47;;
691;SDS011;70475;50.084;8.576;2023-11-21T01:09:22;2.13;;;1.67;;
691;SDS011;70475;50.084;8.576;2023-11-21T01:11:50;5.77;;;2.07;;
691;SDS011;70475;50.084;8.576;2023-11-21T01:14:18;11.13;;;1.93;;
691;SDS011;70475;50.084;8.576;2023-11-21T01:16:47;2.90;;;1.30;;
691;SDS011;70475;50.084;8.576;2023-11-21T01:19:15;6.13;;;1.93;;
691;SDS011;70475;50.084;8.576;2023-11-21T01:21:43;2.10;;;1.67;;
691;SDS011;70475;50.084;8.576;2023-11-21T01:24:10;2.10;;;1.60;;
691;SDS011;70475;50.084;8.576;2023-11-21T01:26:38;3.63;;;2.03;;
691;SDS011;70475;50.084;8.576;2023-11-21T01:29:05;3.50;;;2.10;;
691;SDS011;70475;50.084;8.576;2023-11-21T01:31:33;3.27;;;1.33;;
691;SDS011;70475;50.084;8.576;2023-11-21T01:34:02;1.80;;;1.40;;
691;SDS011;70475;50.084;8.576;2023-11-21T01:36:31;3.13;;;1.50;;
691;SDS011;70475;50.084;8.576;2023-11-21T01:38:59;2.37;;;1.70;;
691;SDS011;70475;50.084;8.576;2023-11-21T01:41:27;1.50;;;1.40;;
691;SDS011;70475;50.084;8.576;2023-11-21T01:43:55;3.50;;;2.07;;
691;SDS011;70475;50.084;8.576;2023-11-21T01:46:23;3.93;;;2.40;;
691;SDS011;70475;50.084;8.576;2023-11-21T01:48:51;2.63;;;2.20;;
691;SDS011;70475;50.084;8.576;2023-11-21T01:51:22;3.43;;;2.23;;
691;SDS011;70475;50.084;8.576;2023-11-21T01:53:49;4.10;;;2.93;;
691;SDS011;70475;50.084;8.576;2023-11-21T01:56:17;3.53;;;2.40;;
691;SDS011;70475;50.084;8.576;2023-11-21T01:58:45;2.80;;;2.50;;
691;SDS011;70475;50.084;8.576;2023-11-21T02:01:13;3.77;;;2.30;;
691;SDS011;70475;50.084;8.576;2023-11-21T02:03:41;3.00;;;1.90;;
691;SDS011;70475;50.084;8.576;2023-11-21T02:06:09;2.70;;;1.90;;
691;SDS011;70475;50.084;8.576;2023-11-21T02:08:38;4.80;;;2.27;;
691;SDS011;70475;50.084;8.576;2023-11-21T02:11:05;2.27;;;1.80;;
691;SDS011;70475;50.084;8.576;2023-11-21T02:13:33;2.60;;;1.67;;
691;SDS011;70475;50.084;8.576;2023-11-21T02:16:01;3.33;;;2.20;;
691;SDS011;70475;50.084;8.576;2023-11-21T02:18:28;6.73;;;2.37;;
691;SDS011;70475;50.084;8.576;2023-11-21T02:20:56;5.13;;;2.80;;
691;SDS011;70475;50.084;8.576;2023-11-21T02:23:25;3.73;;;2.27;;
691;SDS011;70475;50.084;8.576;2023-11-21T02:25:55;6.47;;;3.30;;
691;SDS011;70475;50.084;8.576;2023-11-21T02:28:23;5.70;;;3.47;;
691;SDS011;70475;50.084;8.576;2023-11-21T02:30:52;6.67;;;3.27;;
691;SDS011;70475;50.084;8.576;2023-11-21T02:33:22;2.43;;;2.20;;
691;SDS011;70475;50.084;8.576;2023-11-21T02:35:49;2.27;;;1.83;;
691;SDS011;70475;50.084;8.576;2023-11-21T02:38:20;3.83;;;3.00;;
691;SDS011;70475;50.084;8.576;2023-11-21T02:40:49;3.00;;;2.40;;
691;SDS011;70475;50.084;8.576;2023-11-21T02:43:17;5.17;;;3.20;;
691;SDS011;70475;50.084;8.576;2023-11-21T02:45:45;3.73;;;2.60;;
691;SDS011;70475;50.084;8.576;2023-11-21T02:48:12;11.80;;;3.70;;
691;SDS011;70475;50.084;8.576;2023-11-21T02:50:40;2.70;;;1.83;;
691;SDS011;70475;50.084;8.576;2023-11-21T02:53:09;6.70;;;3.67;;
691;SDS011;70475;50.084;8.576;2023-11-21T02:55:37;3.23;;;2.70;;
691;SDS011;70475;50.084;8.576;2023-11-21T02:58:06;5.60;;;3.20;;
691;SDS011;70475;50.084;8.576;2023-11-21T03:00:33;11.10;;;3.77;;
691;SDS011;70475;50.084;8.576;2023-11-21T03:03:01;4.60;;;3.13;;
691;SDS011;70475;50.084;8.576;2023-11-21T03:05:30;4.10;;;2.57;;
691;SDS011;70475;50.084;8.576;2023-11-21T03:07:57;3.50;;;2.40;;
691;SDS011;70475;50.084;8.576;2023-11-21T03:10:25;8.03;;;4.47;;
691;SDS011;70475;50.084;8.576;2023-11-21T03:12:53;6.30;;;3.00;;
691;SDS011;70475;50.084;8.576;2023-11-21T03:15:22;5.40;;;3.40;;
691;SDS011;70475;50.084;8.576;2023-11-21T03:17:49;4.70;;;3.60;;
691;SDS011;70475;50.084;8.576;2023-11-21T03:20:17;4.10;;;2.93;;
691;SDS011;70475;50.084;8.576;2023-11-21T03:22:45;4.50;;;2.50;;
691;SDS011;70475;50.084;8.576;2023-11-21T03:25:13;4.30;;;2.00;;
691;SDS011;70475;50.084;8.576;2023-11-21T03:27:40;5.50;;;2.37;;
691;SDS011;70475;50.084;8.576;2023-11-21T03:30:08;3.80;;;3.07;;
691;SDS011;70475;50.084;8.576;2023-11-21T03:32:38;7.83;;;3.60;;
691;SDS011;70475;50.084;8.576;2023-11-21T03:35:06;3.87;;;2.13;;
691;SDS011;70475;50.084;8.576;2023-11-21T03:37:34;3.80;;;2.20;;
691;SDS011;70475;50.084;8.576;2023-11-21T03:40:04;3.60;;;2.20;;
691;SDS011;70475;50.084;8.576;2023-11-21T03:42:34;2.90;;;1.97;;
691;SDS011;70475;50.084;8.576;2023-11-21T03:45:02;2.87;;;1.97;;
691;SDS011;70475;50.084;8.576;2023-11-21T03:47:30;4.10;;;3.00;;
691;SDS011;70475;50.084;8.576;2023-11-21T03:49:59;4.70;;;2.63;;
691;SDS011;70475;50.084;8.576;2023-11-21T03:52:27;2.40;;;1.80;;
691;SDS011;70475;50.084;8.576;2023-11-21T03:54:54;1.93;;;1.60;;
691;SDS011;70475;50.084;8.576;2023-11-21T03:57:22;4.30;;;3.03;;
691;SDS011;70475;50.084;8.576;2023-11-21T03:59:49;2.80;;;2.33;;
691;SDS011;70475;50.084;8.576;2023-11-21T04:02:17;3.50;;;2.60;;
691;SDS011;70475;50.084;8.576;2023-11-21T04:04:45;2.83;;;1.53;;
691;SDS011;70475;50.084;8.576;2023-11-21T04:07:14;3.10;;;2.20;;
691;SDS011;70475;50.084;8.576;2023-11-21T04:09:42;4.23;;;2.80;;
691;SDS011;70475;50.084;8.576;2023-11-21T04:12:10;3.43;;;2.70;;
691;SDS011;70475;50.084;8.576;2023-11-21T04:14:38;4.07;;;2.43;;
691;SDS011;70475;50.084;8.576;2023-11-21T04:17:05;2.90;;;2.30;;
691;SDS011;70475;50.084;8.576;2023-11-21T04:19:33;3.10;;;2.50;;
691;SDS011;70475;50.084;8.576;2023-11-21T04:22:01;3.83;;;2.20;;
691;SDS011;70475;50.084;8.576;2023-11-21T04:24:30;2.90;;;1.83;;
691;SDS011;70475;50.084;8.576;2023-11-21T04:26:57;3.23;;;2.07;;
691;SDS011;70475;50.084;8.576;2023-11-21T04:29:25;3.20;;;2.10;;
691;SDS011;70475;50.084;8.576;2023-11-21T04:31:53;4.50;;;3.23;;
691;SDS011;70475;50.084;8.576;2023-11-21T04:34:20;4.03;;;3.10;;
691;SDS011;70475;50.084;8.576;2023-11-21T04:36:49;4.10;;;2.57;;
691;SDS011;70475;50.084;8.576;2023-11-21T04:39:16;3.90;;;2.80;;
691;SDS011;70475;50.084;8.576;2023-11-21T04:41:45;4.33;;;3.07;;
691;SDS011;70475;50.084;8.576;2023-11-21T04:44:13;3.10;;;2.53;;
691;SDS011;70475;50.084;8.576;2023-11-21T04:46:42;4.20;;;2.50;;
691;SDS011;70475;50.084;8.576;2023-11-21T04:49:10;2.27;;;2.00;;
691;SDS011;70475;50.084;8.576;2023-11-21T04:51:38;4.40;;;1.97;;
691;SDS011;70475;50.084;8.576;2023-11-21T04:54:05;3.40;;;2.53;;
691;SDS011;70475;50.084;8.576;2023-11-21T04:56:33;3.73;;;1.70;;
691;SDS011;70475;50.084;8.576;2023-11-21T04:59:02;7.30;;;3.40;;
691;SDS011;70475;50.084;8.576;2023-11-21T05:01:30;2.90;;;2.20;;
691;SDS011;70475;50.084;8.576;2023-11-21T05:03:58;4.40;;;3.73;;
691;SDS011;70475;50.084;8.576;2023-11-21T05:06:26;3.07;;;2.43;;
691;SDS011;70475;50.084;8.576;2023-11-21T05:08:53;3.27;;;2.97;;
691;SDS011;70475;50.084;8.576;2023-11-21T05:11:24;6.70;;;3.37;;
691;SDS011;70475;50.084;8.576;2023-11-21T05:13:52;4.30;;;3.13;;
691;SDS011;70475;50.084;8.576;2023-11-21T05:16:25;5.07;;;3.40;;
691;SDS011;70475;50.084;8.576;2023-11-21T05:18:53;4.23;;;3.10;;
691;SDS011;70475;50.084;8.576;2023-11-21T05:21:26;5.40;;;4.90;;
691;SDS011;70475;50.084;8.576;2023-11-21T05:23:54;6.60;;;3.97;;
691;SDS011;70475;50.084;8.576;2023-11-21T05:26:21;5.70;;;4.00;;
691;SDS011;70475;50.084;8.576;2023-11-21T05:28:49;5.70;;;3.70;;
691;SDS011;70475;50.084;8.576;2023-11-21T05:31:16;4.33;;;3.53;;
691;SDS011;70475;50.084;8.576;2023-11-21T05:33:45;8.60;;;5.70;;
691;SDS011;70475;50.084;8.576;2023-11-21T05:36:13;12.93;;;7.10;;
691;SDS011;70475;50.084;8.576;2023-11-21T05:38:40;10.23;;;5.60;;
691;SDS011;70475;50.084;8.576;2023-11-21T05:41:08;7.50;;;5.60;;
691;SDS011;70475;50.084;8.576;2023-11-21T05:43:39;6.10;;;4.13;;
691;SDS011;70475;50.084;8.576;2023-11-21T05:46:07;7.23;;;4.47;;
691;SDS011;70475;50.084;8.576;2023-11-21T05:48:35;11.10;;;4.97;;
691;SDS011;70475;50.084;8.576;2023-11-21T05:51:05;8.60;;;5.10;;
691;SDS011;70475;50.084;8.576;2023-11-21T05:53:34;10.47;;;4.90;;
691;SDS011;70475;50.084;8.576;2023-11-21T05:56:02;5.23;;;3.10;;
691;SDS011;70475;50.084;8.576;2023-11-21T05:58:30;8.73;;;5.80;;
691;SDS011;70475;50.084;8.576;2023-11-21T06:00:58;7.70;;;3.97;;
691;SDS011;70475;50.084;8.576;2023-11-21T06:03:26;7.43;;;4.70;;
691;SDS011;70475;50.084;8.576;2023-11-21T06:05:53;6.63;;;4.30;;
691;SDS011;70475;50.084;8.576;2023-11-21T06:08:22;5.80;;;3.60;;
691;SDS011;70475;50.084;8.576;2023-11-21T06:10:50;7.30;;;4.30;;
691;SDS011;70475;50.084;8.576;2023-11-21T06:13:18;6.60;;;3.93;;
691;SDS011;70475;50.084;8.576;2023-11-21T06:15:50;7.40;;;4.27;;
691;SDS011;70475;50.084;8.576;2023-11-21T06:18:18;15.17;;;6.27;;
691;SDS011;70475;50.084;8.576;2023-11-21T06:20:46;10.13;;;4.30;;
691;SDS011;70475;50.084;8.576;2023-11-21T06:23:14;7.80;;;3.23;;
691;SDS011;70475;50.084;8.576;2023-11-21T06:25:43;8.60;;;4.33;;
691;SDS011;70475;50.084;8.576;2023-11-21T06:28:11;8.77;;;4.20;;
691;SDS011;70475;50.084;8.576;2023-11-21T06:30:39;5.90;;;3.83;;
691;SDS011;70475;50.084;8.576;2023-11-21T06:33:06;4.60;;;2.93;;
691;SDS011;70475;50.084;8.576;2023-11-21T06:35:34;8.10;;;3.17;;
691;SDS011;70475;50.084;8.576;2023-11-21T06:38:02;6.30;;;3.17;;
691;SDS011;70475;50.084;8.576;2023-11-21T06:40:30;5.60;;;2.67;;
691;SDS011;70475;50.084;8.576;2023-11-21T06:43:01;6.43;;;4.00;;
691;SDS011;70475;50.084;8.576;2023-11-21T06:45:29;5.80;;;3.93;;
691;SDS011;70475;50.084;8.576;2023-11-21T06:47:56;4.97;;;3.00;;
691;SDS011;70475;50.084;8.576;2023-11-21T06:50:24;4.97;;;3.30;;
691;SDS011;70475;50.084;8.576;2023-11-21T06:52:51;8.40;;;3.93;;
691;SDS011;70475;50.084;8.576;2023-11-21T06:55:19;4.33;;;2.10;;
691;SDS011;70475;50.084;8.576;2023-11-21T06:57:47;6.93;;;3.70;;
691;SDS011;70475;50.084;8.576;2023-11-21T07:00:16;6.57;;;2.47;;
691;SDS011;70475;50.084;8.576;2023-11-21T07:02:45;5.93;;;3.83;;
691;SDS011;70475;50.084;8.576;2023-11-21T07:05:12;2.90;;;1.80;;
691;SDS011;70475;50.084;8.576;2023-11-21T07:07:41;3.87;;;2.67;;
691;SDS011;70475;50.084;8.576;2023-11-21T07:10:09;3.30;;;2.67;;
691;SDS011;70475;50.084;8.576;2023-11-21T07:12:37;3.90;;;3.47;;
691;SDS011;70475;50.084;8.576;2023-11-21T07:15:05;4.13;;;2.60;;
691;SDS011;70475;50.084;8.576;2023-11-21T07:17:37;3.80;;;2.30;;
691;SDS011;70475;50.084;8.576;2023-11-21T07:20:07;2.97;;;2.47;;
691;SDS011;70475;50.084;8.576;2023-11-21T07:22:35;2.83;;;2.27;;
691;SDS011;70475;50.084;8.576;2023-11-21T07:25:03;2.03;;;1.63;;
691;SDS011;70475;50.084;8.576;2023-11-21T07:27:31;5.40;;;2.03;;
691;SDS011;70475;50.084;8.576;2023-11-21T07:30:00;1.97;;;1.70;;
691;SDS011;70475;50.084;8.576;2023-11-21T07:32:29;2.70;;;1.77;;
691;SDS011;70475;50.084;8.576;2023-11-21T07:34:58;2.70;;;2.50;;
691;SDS011;70475;50.084;8.576;2023-11-21T07:37:27;5.10;;;3.37;;
691;SDS011;70475;50.084;8.576;2023-11-21T07:39:55;7.60;;;3.07;;
691;SDS011;70475;50.084;8.576;2023-11-21T07:42:23;2.43;;;1.53;;
691;SDS011;70475;50.084;8.576;2023-11-21T07:44:52;3.33;;;1.87;;
691;SDS011;70475;50.084;8.576;2023-11-21T07:47:20;2.93;;;2.40;;
691;SDS011;70475;50.084;8.576;2023-11-21T07:49:47;7.00;;;2.63;;
691;SDS011;70475;50.084;8.576;2023-11-21T07:52:16;6.00;;;2.80;;
691;SDS011;70475;50.084;8.576;2023-11-21T07:54:45;4.20;;;2.03;;
691;SDS011;70475;50.084;8.576;2023-11-21T07:57:12;7.33;;;1.77;;
691;SDS011;70475;50.084;8.576;2023-11-21T07:59:40;4.23;;;2.50;;
691;SDS011;70475;50.084;8.576;2023-11-21T08:02:08;5.23;;;2.77;;
691;SDS011;70475;50.084;8.576;2023-11-21T08:04:35;5.80;;;2.83;;
691;SDS011;70475;50.084;8.576;2023-11-21T08:07:03;2.07;;;1.77;;
691;SDS011;70475;50.084;8.576;2023-11-21T08:09:32;2.17;;;1.97;;
691;SDS011;70475;50.084;8.576;2023-11-21T08:12:00;8.53;;;3.00;;
691;SDS011;70475;50.084;8.576;2023-11-21T08:14:28;5.63;;;2.03;;
691;SDS011;70475;50.084;8.576;2023-11-21T08:16:56;3.47;;;2.33;;
691;SDS011;70475;50.084;8.576;2023-11-21T08:19:24;6.60;;;2.73;;
691;SDS011;70475;50.084;8.576;2023-11-21T08:21:52;4.73;;;3.73;;
691;SDS011;70475;50.084;8.576;2023-11-21T08:24:21;9.70;;;3.23;;
691;SDS011;70475;50.084;8.576;2023-11-21T08:26:50;7.07;;;2.90;;
691;SDS011;70475;50.084;8.576;2023-11-21T08:29:18;8.03;;;2.80;;
691;SDS011;70475;50.084;8.576;2023-11-21T08:31:46;3.47;;;1.80;;
691;SDS011;70475;50.084;8.576;2023-11-21T08:34:13;3.67;;;3.20;;
691;SDS011;70475;50.084;8.576;2023-11-21T08:36:42;2.50;;;1.70;;
691;SDS011;70475;50.084;8.576;2023-11-21T08:39:10;4.00;;;2.73;;
691;SDS011;70475;50.084;8.576;2023-11-21T08:41:39;4.30;;;2.10;;
691;SDS011;70475;50.084;8.576;2023-11-21T08:44:08;5.43;;;2.80;;
691;SDS011;70475;50.084;8.576;2023-11-21T08:46:37;6.60;;;3.13;;
691;SDS011;70475;50.084;8.576;2023-11-21T08:49:06;3.37;;;1.80;;
691;SDS011;70475;50.084;8.576;2023-11-21T08:51:33;2.83;;;2.33;;
691;SDS011;70475;50.084;8.576;2023-11-21T08:54:01;4.00;;;2.80;;
691;SDS011;70475;50.084;8.576;2023-11-21T08:56:31;5.20;;;1.90;;
691;SDS011;70475;50.084;8.576;2023-11-21T08:58:58;5.13;;;2.00;;
691;SDS011;70475;50.084;8.576;2023-11-21T09:01:29;3.67;;;2.87;;
691;SDS011;70475;50.084;8.576;2023-11-21T09:03:58;3.00;;;1.90;;
691;SDS011;70475;50.084;8.576;2023-11-21T09:06:25;2.93;;;2.13;;
691;SDS011;70475;50.084;8.576;2023-11-21T09:08:53;3.60;;;1.80;;
691;SDS011;70475;50.084;8.576;2023-11-21T09:11:20;3.20;;;2.07;;
691;SDS011;70475;50.084;8.576;2023-11-21T09:13:48;4.23;;;2.90;;
691;SDS011;70475;50.084;8.576;2023-11-21T09:16:16;5.37;;;2.93;;
691;SDS011;70475;50.084;8.576;2023-11-21T09:18:45;3.13;;;2.13;;
691;SDS011;70475;50.084;8.576;2023-11-21T09:21:12;13.60;;;2.10;;
691;SDS011;70475;50.084;8.576;2023-11-21T09:23:40;5.17;;;3.63;;
691;SDS011;70475;50.084;8.576;2023-11-21T09:26:08;7.63;;;2.30;;
691;SDS011;70475;50.084;8.576;2023-11-21T09:28:36;2.53;;;1.83;;
691;SDS011;70475;50.084;8.576;2023-11-21T09:31:04;3.27;;;1.80;;
691;SDS011;70475;50.084;8.576;2023-11-21T09:33:35;2.80;;;1.33;;
691;SDS011;70475;50.084;8.576;2023-11-21T09:36:10;2.37;;;1.50;;
691;SDS011;70475;50.084;8.576;2023-11-21T09:38:39;4.87;;;2.87;;
691;SDS011;70475;50.084;8.576;2023-11-21T09:41:09;2.60;;;1.83;;
691;SDS011;70475;50.084;8.576;2023-11-21T09:43:44;2.23;;;1.57;;
691;SDS011;70475;50.084;8.576;2023-11-21T09:46:13;3.57;;;2.50;;
691;SDS011;70475;50.084;8.576;2023-11-21T09:48:47;3.73;;;2.53;;
691;SDS011;70475;50.084;8.576;2023-11-21T09:51:19;4.53;;;1.47;;
691;SDS011;70475;50.084;8.576;2023-11-21T09:53:49;2.67;;;2.00;;
691;SDS011;70475;50.084;8.576;2023-11-21T09:56:18;2.03;;;1.30;;
691;SDS011;70475;50.084;8.576;2023-11-21T09:58:50;2.60;;;2.00;;
691;SDS011;70475;50.084;8.576;2023-11-21T10:01:19;3.80;;;3.23;;
691;SDS011;70475;50.084;8.576;2023-11-21T10:03:48;2.70;;;1.33;;
691;SDS011;70475;50.084;8.576;2023-11-21T10:06:16;3.30;;;2.33;;
691;SDS011;70475;50.084;8.576;2023-11-21T10:08:46;2.30;;;1.67;;
691;SDS011;70475;50.084;8.576;2023-11-21T10:11:21;3.83;;;1.70;;
691;SDS011;70475;50.084;8.576;2023-11-21T10:13:52;5.73;;;1.97;;
691;SDS011;70475;50.084;8.576;2023-11-21T10:16:24;6.33;;;3.57;;
691;SDS011;70475;50.084;8.576;2023-11-21T10:18:53;7.03;;;2.53;;
691;SDS011;70475;50.084;8.576;2023-11-21T10:21:36;2.30;;;1.70;;
691;SDS011;70475;50.084;8.576;2023-11-21T10:24:07;8.10;;;2.60;;
691;SDS011;70475;50.084;8.576;2023-11-21T10:26:35;4.07;;;2.07;;
691;SDS011;70475;50.084;8.576;2023-11-21T10:29:18;2.40;;;1.77;;
691;SDS011;70475;50.084;8.576;2023-11-21T10:31:48;4.63;;;2.10;;
691;SDS011;70475;50.084;8.576;2023-11-21T10:34:17;11.20;;;2.00;;
691;SDS011;70475;50.084;8.576;2023-11-21T10:36:45;1.93;;;1.60;;
691;SDS011;70475;50.084;8.576;2023-11-21T10:39:16;2.50;;;1.43;;
691;SDS011;70475;50.084;8.576;2023-11-21T10:41:45;8.80;;;2.90;;
691;SDS011;70475;50.084;8.576;2023-11-21T10:44:13;3.63;;;1.80;;
691;SDS011;70475;50.084;8.576;2023-11-21T10:46:46;2.43;;;1.50;;
691;SDS011;70475;50.084;8.576;2023-11-21T10:49:17;2.53;;;1.93;;
691;SDS011;70475;50.084;8.576;2023-11-21T10:51:44;4.53;;;2.57;;
691;SDS011;70475;50.084;8.576;2023-11-21T10:54:18;5.03;;;2.57;;
691;SDS011;70475;50.084;8.576;2023-11-21T10:56:46;3.70;;;2.60;;
691;SDS011;70475;50.084;8.576;2023-11-21T10:59:17;3.50;;;2.00;;
691;SDS011;70475;50.084;8.576;2023-11-21T11:01:47;5.80;;;2.30;;
691;SDS011;70475;50.084;8.576;2023-11-21T11:04:17;2.10;;;1.53;;
691;SDS011;70475;50.084;8.576;2023-11-21T11:06:46;6.10;;;2.33;;
691;SDS011;70475;50.084;8.576;2023-11-21T11:09:19;4.00;;;2.13;;
691;SDS011;70475;50.084;8.576;2023-11-21T11:11:47;3.60;;;2.73;;
691;SDS011;70475;50.084;8.576;2023-11-21T11:14:15;3.10;;;1.83;;
691;SDS011;70475;50.084;8.576;2023-11-21T11:16:45;3.63;;;2.43;;
691;SDS011;70475;50.084;8.576;2023-11-21T11:19:13;4.63;;;2.60;;
691;SDS011;70475;50.084;8.576;2023-11-21T11:21:45;3.30;;;1.70;;
691;SDS011;70475;50.084;8.576;2023-11-21T11:24:24;4.53;;;1.60;;
691;SDS011;70475;50.084;8.576;2023-11-21T11:27:06;6.13;;;2.00;;
691;SDS011;70475;50.084;8.576;2023-11-21T11:29:44;2.77;;;1.97;;
691;SDS011;70475;50.084;8.576;2023-11-21T11:32:21;6.90;;;2.20;;
691;SDS011;70475;50.084;8.576;2023-11-21T11:34:59;2.37;;;1.53;;
691;SDS011;70475;50.084;8.576;2023-11-21T11:37:31;4.70;;;2.20;;
691;SDS011;70475;50.084;8.576;2023-11-21T11:40:00;5.43;;;2.00;;
691;SDS011;70475;50.084;8.576;2023-11-21T11:42:29;7.03;;;2.10;;
691;SDS011;70475;50.084;8.576;2023-11-21T11:44:56;3.80;;;2.57;;
691;SDS011;70475;50.084;8.576;2023-11-21T11:47:25;2.90;;;1.87;;
691;SDS011;70475;50.084;8.576;2023-11-21T11:50:02;2.63;;;1.60;;
691;SDS011;70475;50.084;8.576;2023-11-21T11:52:40;4.13;;;2.00;;
691;SDS011;70475;50.084;8.576;2023-11-21T11:55:11;4.97;;;2.50;;
691;SDS011;70475;50.084;8.576;2023-11-21T11:57:39;1.80;;;1.47;;
691;SDS011;70475;50.084;8.576;2023-11-21T12:00:09;3.73;;;2.17;;
691;SDS011;70475;50.084;8.576;2023-11-21T12:02:44;4.83;;;1.80;;
691;SDS011;70475;50.084;8.576;2023-11-21T12:05:14;8.73;;;2.60;;
691;SDS011;70475;50.084;8.576;2023-11-21T12:07:45;6.63;;;3.03;;
691;SDS011;70475;50.084;8.576;2023-11-21T12:10:16;10.20;;;3.83;;
691;SDS011;70475;50.084;8.576;2023-11-21T12:12:45;3.47;;;2.57;;
691;SDS011;70475;50.084;8.576;2023-11-21T12:15:13;4.57;;;2.90;;
691;SDS011;70475;50.084;8.576;2023-11-21T12:17:41;10.50;;;2.67;;
691;SDS011;70475;50.084;8.576;2023-11-21T12:20:10;4.47;;;3.00;;
691;SDS011;70475;50.084;8.576;2023-11-21T12:22:44;3.93;;;3.20;;
691;SDS011;70475;50.084;8.576;2023-11-21T12:25:16;4.23;;;2.20;;
691;SDS011;70475;50.084;8.576;2023-11-21T12:27:45;7.33;;;2.57;;
691;SDS011;70475;50.084;8.576;2023-11-21T12:30:16;2.80;;;2.20;;
691;SDS011;70475;50.084;8.576;2023-11-21T12:32:47;5.40;;;2.80;;
691;SDS011;70475;50.084;8.576;2023-11-21T12:35:16;3.27;;;1.33;;
691;SDS011;70475;50.084;8.576;2023-11-21T12:37:45;3.77;;;1.60;;
691;SDS011;70475;50.084;8.576;2023-11-21T12:40:14;4.43;;;3.07;;
691;SDS011;70475;50.084;8.576;2023-11-21T12:42:45;7.77;;;2.43;;
691;SDS011;70475;50.084;8.576;2023-11-21T12:45:18;5.90;;;1.97;;
691;SDS011;70475;50.084;8.576;2023-11-21T12:47:47;3.77;;;2.03;;
691;SDS011;70475;50.084;8.576;2023-11-21T12:50:18;3.50;;;1.93;;
691;SDS011;70475;50.084;8.576;2023-11-21T12:52:50;3.80;;;1.90;;
691;SDS011;70475;50.084;8.576;2023-11-21T12:55:20;5.63;;;2.57;;
691;SDS011;70475;50.084;8.576;2023-11-21T12:57:50;3.47;;;2.30;;
691;SDS011;70475;50.084;8.576;2023-11-21T13:00:26;2.83;;;2.10;;
691;SDS011;70475;50.084;8.576;2023-11-21T13:02:56;2.33;;;1.77;;
691;SDS011;70475;50.084;8.576;2023-11-21T13:05:26;7.10;;;1.93;;
691;SDS011;70475;50.084;8.576;2023-11-21T13:07:55;3.70;;;2.00;;
691;SDS011;70475;50.084;8.576;2023-11-21T13:10:24;2.47;;;2.00;;
691;SDS011;70475;50.084;8.576;2023-11-21T13:12:57;7.93;;;2.00;;
691;SDS011;70475;50.084;8.576;2023-11-21T13:15:26;4.23;;;2.10;;
691;SDS011;70475;50.084;8.576;2023-11-21T13:17:54;3.37;;;1.83;;
691;SDS011;70475;50.084;8.576;2023-11-21T13:20:23;4.40;;;1.87;;
691;SDS011;70475;50.084;8.576;2023-11-21T13:22:52;2.90;;;2.20;;
691;SDS011;70475;50.084;8.576;2023-11-21T13:25:23;2.13;;;1.60;;
691;SDS011;70475;50.084;8.576;2023-11-21T13:27:53;2.70;;;1.80;;
691;SDS011;70475;50.084;8.576;2023-11-21T13:30:23;3.00;;;2.20;;
691;SDS011;70475;50.084;8.576;2023-11-21T13:32:53;3.30;;;1.87;;
691;SDS011;70475;50.084;8.576;2023-11-21T13:35:23;2.37;;;1.87;;
691;SDS011;70475;50.084;8.576;2023-11-21T13:37:57;8.20;;;1.97;;
691;SDS011;70475;50.084;8.576;2023-11-21T13:40:29;1.73;;;1.30;;
691;SDS011;70475;50.084;8.576;2023-11-21T13:42:57;3.07;;;1.50;;
691;SDS011;70475;50.084;8.576;2023-11-21T13:45:27;2.70;;;1.60;;
691;SDS011;70475;50.084;8.576;2023-11-21T13:47:56;4.93;;;1.70;;
691;SDS011;70475;50.084;8.576;2023-11-21T13:50:25;5.17;;;2.30;;
691;SDS011;70475;50.084;8.576;2023-11-21T13:52:58;5.43;;;1.90;;
691;SDS011;70475;50.084;8.576;2023-11-21T13:55:30;3.70;;;2.63;;
691;SDS011;70475;50.084;8.576;2023-11-21T13:57:58;1.87;;;1.67;;
691;SDS011;70475;50.084;8.576;2023-11-21T14:00:37;2.50;;;1.53;;
691;SDS011;70475;50.084;8.576;2023-11-21T14:03:10;4.20;;;1.40;;
691;SDS011;70475;50.084;8.576;2023-11-21T14:05:45;2.10;;;1.70;;
691;SDS011;70475;50.084;8.576;2023-11-21T14:08:18;5.53;;;2.10;;
691;SDS011;70475;50.084;8.576;2023-11-21T14:10:47;3.43;;;2.77;;
691;SDS011;70475;50.084;8.576;2023-11-21T14:13:21;2.80;;;2.20;;
691;SDS011;70475;50.084;8.576;2023-11-21T14:15:51;5.00;;;1.90;;
691;SDS011;70475;50.084;8.576;2023-11-21T14:18:23;2.00;;;1.70;;
691;SDS011;70475;50.084;8.576;2023-11-21T14:20:56;4.03;;;1.70;;
691;SDS011;70475;50.084;8.576;2023-11-21T14:23:24;3.50;;;2.40;;
691;SDS011;70475;50.084;8.576;2023-11-21T14:25:52;7.80;;;3.30;;
691;SDS011;70475;50.084;8.576;2023-11-21T14:28:20;8.33;;;3.47;;
691;SDS011;70475;50.084;8.576;2023-11-21T14:30:47;4.43;;;2.70;;
691;SDS011;70475;50.084;8.576;2023-11-21T14:33:16;3.63;;;2.10;;
691;SDS011;70475;50.084;8.576;2023-11-21T14:35:44;5.00;;;2.40;;
691;SDS011;70475;50.084;8.576;2023-11-21T14:38:13;5.23;;;1.63;;
691;SDS011;70475;50.084;8.576;2023-11-21T14:40:41;5.03;;;1.80;;
691;SDS011;70475;50.084;8.576;2023-11-21T14:43:08;3.17;;;2.20;;
691;SDS011;70475;50.084;8.576;2023-11-21T14:45:36;7.50;;;2.53;;
691;SDS011;70475;50.084;8.576;2023-11-21T14:48:14;3.63;;;3.20;;
691;SDS011;70475;50.084;8.576;2023-11-21T14:51:08;2.60;;;2.07;;
691;SDS011;70475;50.084;8.576;2023-11-21T14:53:54;3.50;;;2.87;;
691;SDS011;70475;50.084;8.576;2023-11-21T14:56:25;8.33;;;2.17;;
691;SDS011;70475;50.084;8.576;2023-11-21T14:58:54;11.30;;;3.13;;
691;SDS011;70475;50.084;8.576;2023-11-21T15:01:23;6.90;;;2.37;;
691;SDS011;70475;50.084;8.576;2023-11-21T15:04:04;2.23;;;1.47;;
691;SDS011;70475;50.084;8.576;2023-11-21T15:06:32;2.57;;;1.93;;
691;SDS011;70475;50.084;8.576;2023-11-21T15:08:59;3.20;;;1.53;;
691;SDS011;70475;50.084;8.576;2023-11-21T15:11:45;3.70;;;1.83;;
691;SDS011;70475;50.084;8.576;2023-11-21T15:14:13;5.87;;;2.10;;
691;SDS011;70475;50.084;8.576;2023-11-21T15:16:46;2.07;;;1.50;;
691;SDS011;70475;50.084;8.576;2023-11-21T15:19:19;6.57;;;2.40;;
691;SDS011;70475;50.084;8.576;2023-11-21T15:21:52;3.93;;;3.00;;
691;SDS011;70475;50.084;8.576;2023-11-21T15:24:19;4.17;;;3.37;;
691;SDS011;70475;50.084;8.576;2023-11-21T15:26:47;4.57;;;2.50;;